Inzhener Nazarov — UAGO — position and weather

sailwx.info

Track history (hours):
 
Tides and Currents Weather Stations Pressure Air Temp Water Temp Dewpoint Dewpoint Depression Visibility Wind Speed Wind Dir Waves Ship Positions

Inzhener Nazarov

Last reported at 2018-Jun-17 15:54 UTC. Time now 2018-Jun-20 05:12 UTC.
Position N 45°25' E 036°41'.

Length 132 m; draft 2.6 m.

Type: Ship. MMSI: 273310100.

Date/timePositionNaut miles runAvg speedWind from/ knotsBaromVisibWave heightAir tempDewpointWater temp
2018-Jun-17 15:54N 45°25' E 036°41'3 6.9
2018-Jun-17 15:30N 45°22' E 036°40'3 5.2
2018-Jun-17 15:00N 45°20' E 036°37'3 5.7
2018-Jun-17 14:30N 45°19' E 036°34'3 6.2
2018-Jun-17 14:00N 45°18' E 036°29'1 0.1
2018-Jun-16 19:40N 45°19' E 036°31'1 6.8
2018-Jun-16 19:30N 45°19' E 036°32'3 6.4
2018-Jun-16 19:00N 45°20' E 036°37'3 6.2
2018-Jun-16 18:30N 45°22' E 036°40'4 7.7
2018-Jun-16 18:00N 45°26' E 036°41'3 6.1
2018-Jun-16 17:30N 45°28' E 036°44'1 1.7
2018-Jun-16 17:00N 45°29' E 036°44'0 0.0
2018-Jun-16 16:08N 45°29' E 036°44'0 0.0
2018-Jun-16 15:53N 45°29' E 036°44'0 0.1
2018-Jun-16 15:23N 45°29' E 036°45'0 0.1
2018-Jun-16 15:00N 45°29' E 036°45'0 0.0
2018-Jun-16 14:09N 45°29' E 036°45'0 0.0
2018-Jun-16 13:54N 45°29' E 036°45'0 0.0
2018-Jun-16 13:28N 45°29' E 036°45'0 0.0
2018-Jun-16 12:54N 45°29' E 036°45'0 0.0
2018-Jun-16 12:30N 45°29' E 036°45'5 6.1
2018-Jun-16 11:42N 45°33' E 036°47'  
Track history (hours):
 
Tides and Currents Weather Stations Pressure Air Temp Water Temp Dewpoint Dewpoint Depression Visibility Wind Speed Wind Dir Waves Ship Positions

Inzhener Nazarov

Last reported at 2018-Jun-17 15:54 UTC. Time now 2018-Jun-20 05:12 UTC.
Position N 45°25' E 036°41'.

Length 132 m; draft 2.6 m.

Type: Ship. MMSI: 273310100.

Date/timePositionNaut miles runAvg speedWind from/ knotsBaromVisibWave heightAir tempDewpointWater temp
2018-Jun-17 15:54N 45°25' E 036°41'3 6.9
2018-Jun-17 15:30N 45°22' E 036°40'3 5.2
2018-Jun-17 15:00N 45°20' E 036°37'3 5.7
2018-Jun-17 14:30N 45°19' E 036°34'3 6.2
2018-Jun-17 14:00N 45°18' E 036°29'1 0.1
2018-Jun-16 19:40N 45°19' E 036°31'1 6.8
2018-Jun-16 19:30N 45°19' E 036°32'3 6.4
2018-Jun-16 19:00N 45°20' E 036°37'3 6.2
2018-Jun-16 18:30N 45°22' E 036°40'4 7.7
2018-Jun-16 18:00N 45°26' E 036°41'3 6.1
2018-Jun-16 17:30N 45°28' E 036°44'1 1.7
2018-Jun-16 17:00N 45°29' E 036°44'0 0.0
2018-Jun-16 16:08N 45°29' E 036°44'0 0.0
2018-Jun-16 15:53N 45°29' E 036°44'0 0.1
2018-Jun-16 15:23N 45°29' E 036°45'0 0.1
2018-Jun-16 15:00N 45°29' E 036°45'0 0.0
2018-Jun-16 14:09N 45°29' E 036°45'0 0.0
2018-Jun-16 13:54N 45°29' E 036°45'0 0.0
2018-Jun-16 13:28N 45°29' E 036°45'0 0.0
2018-Jun-16 12:54N 45°29' E 036°45'0 0.0
2018-Jun-16 12:30N 45°29' E 036°45'5 6.1
2018-Jun-16 11:42N 45°33' E 036°47'  

Dump ship's entire track history